Back to Top

Language: 

My Weather Underground Personal Weather Station Historical Data with Graphs...

Delerius Weather Station Historical Data
Daily Summary for August 13, 2017 Units:  English    Metric   Both
« Previous Day
Next Day »
Daily Weekly Monthly Yearly Custom
  High: Low: Average:
Temperature: 69.8 °F 49.6 °F 60.4 °F
Dew Point: 53.5 °F 44.5 °F 48.1 °F
Humidity: 93 % 41 % 67 %
Wind Speed: 10.0 mph 0.0 mph 3.3 mph
Wind Gust: 18.0 mph - -
Wind:- - WNW
Pressure: 30.15 in 30.07 in -
Precipitation: 0.00 in    
Historical Graphs
 
 
Tabular Data for August 13, 2017
Time Temperature Dew Point Pressure Wind Wind Speed Wind Gust Humidity Rainfall Rate (Hourly) solar Conditions
00:03 54.3 °F 49.6 °F 30.08 in West 3.0 mph 9.0 mph 84 % 0.00 in 0 W/m2
00:08 54.3 °F 49.9 °F 30.07 in West 2.0 mph 6.0 mph 85 % 0.00 in 0 W/m2
00:13 54.1 °F 49.7 °F 30.08 in WSW 2.0 mph 6.0 mph 85 % 0.00 in 0 W/m2
00:18 54.0 °F 49.6 °F 30.08 in WSW 1.0 mph 5.0 mph 85 % 0.00 in 0 W/m2
00:23 54.0 °F 49.6 °F 30.08 in WSW 1.0 mph 5.0 mph 85 % 0.00 in 0 W/m2
00:28 53.8 °F 49.7 °F 30.08 in WSW 1.0 mph 5.0 mph 86 % 0.00 in 0 W/m2
00:33 53.6 °F 49.5 °F 30.08 in Calm   3.0 mph 86 % 0.00 in 0 W/m2
00:38 53.4 °F 49.3 °F 30.08 in Calm     86 % 0.00 in 0 W/m2
00:43 53.2 °F 49.2 °F 30.08 in Calm   2.0 mph 86 % 0.00 in 0 W/m2
00:48 53.1 °F 49.3 °F 30.08 in Calm   2.0 mph 87 % 0.00 in 0 W/m2
00:53 52.9 °F 49.1 °F 30.08 in Calm   1.0 mph 87 % 0.00 in 0 W/m2
00:58 52.5 °F 48.8 °F 30.08 in Calm   2.0 mph 87 % 0.00 in 0 W/m2
01:03 52.3 °F 48.6 °F 30.08 in Calm   2.0 mph 87 % 0.00 in 0 W/m2
01:08 52.2 °F 48.4 °F 30.08 in Calm     87 % 0.00 in 0 W/m2
01:13 52.0 °F 48.2 °F 30.08 in Calm     87 % 0.00 in 0 W/m2
01:18 51.6 °F 48.2 °F 30.08 in Calm     88 % 0.00 in 0 W/m2
01:23 51.4 °F 48.0 °F 30.08 in Calm     88 % 0.00 in 0 W/m2
01:28 51.3 °F 48.1 °F 30.08 in Calm     89 % 0.00 in 0 W/m2
01:33 51.1 °F 48.0 °F 30.08 in Calm     89 % 0.00 in 0 W/m2
01:38 50.9 °F 47.8 °F 30.08 in Calm     89 % 0.00 in 0 W/m2
01:43 50.7 °F 47.6 °F 30.08 in Calm     89 % 0.00 in 0 W/m2
01:48 50.5 °F 47.4 °F 30.08 in Calm   2.0 mph 89 % 0.00 in 0 W/m2
01:53 50.4 °F 47.2 °F 30.08 in Calm   2.0 mph 89 % 0.00 in 0 W/m2
01:58 50.2 °F 47.4 °F 30.08 in WSW 1.0 mph 5.0 mph 90 % 0.00 in 0 W/m2
02:03 50.2 °F 47.4 °F 30.08 in WSW 1.0 mph 5.0 mph 90 % 0.00 in 0 W/m2
02:08 50.0 °F 47.2 °F 30.08 in Calm   2.0 mph 90 % 0.00 in 0 W/m2
02:13 49.8 °F 47.0 °F 30.08 in Calm   4.0 mph 90 % 0.00 in 0 W/m2
02:18 49.6 °F 47.1 °F 30.08 in Calm   4.0 mph 91 % 0.00 in 0 W/m2
02:23 49.6 °F 47.1 °F 30.08 in Calm   5.0 mph 91 % 0.00 in 0 W/m2
02:28 49.6 °F 47.1 °F 30.08 in WSW 1.0 mph 5.0 mph 91 % 0.00 in 0 W/m2
02:33 49.6 °F 47.4 °F 30.08 in WSW 2.0 mph 6.0 mph 92 % 0.00 in 0 W/m2
02:38 49.6 °F 47.4 °F 30.08 in WNW 3.0 mph 6.0 mph 92 % 0.00 in 0 W/m2
02:43 50.0 °F 48.1 °F 30.08 in WNW 4.0 mph 7.0 mph 93 % 0.00 in 0 W/m2
02:48 50.4 °F 48.4 °F 30.09 in WNW 4.0 mph 8.0 mph 93 % 0.00 in 0 W/m2
02:53 50.5 °F 48.6 °F 30.08 in WNW 4.0 mph 8.0 mph 93 % 0.00 in 0 W/m2
02:58 50.7 °F 48.8 °F 30.09 in NW 3.0 mph 7.0 mph 93 % 0.00 in 0 W/m2
03:03 50.7 °F 48.5 °F 30.09 in NW 2.0 mph 5.0 mph 92 % 0.00 in 0 W/m2
03:08 50.7 °F 48.5 °F 30.09 in NW 1.0 mph 6.0 mph 92 % 0.00 in 0 W/m2
03:13 50.7 °F 48.5 °F 30.09 in NW 2.0 mph 6.0 mph 92 % 0.00 in 0 W/m2
03:18 50.7 °F 48.5 °F 30.09 in WNW 3.0 mph 6.0 mph 92 % 0.00 in 0 W/m2
03:23 50.7 °F 48.2 °F 30.09 in WNW 3.0 mph 6.0 mph 91 % 0.00 in 0 W/m2
03:28 50.5 °F 48.0 °F 30.09 in WNW 3.0 mph 6.0 mph 91 % 0.00 in 0 W/m2
03:33 50.7 °F 48.2 °F 30.09 in WNW 3.0 mph 6.0 mph 91 % 0.00 in 0 W/m2
03:38 50.7 °F 48.2 °F 30.09 in WNW 2.0 mph 6.0 mph 91 % 0.00 in 0 W/m2
03:43 50.5 °F 48.0 °F 30.09 in WNW 1.0 mph 5.0 mph 91 % 0.00 in 0 W/m2
03:48 50.4 °F 47.5 °F 30.09 in WNW 1.0 mph 5.0 mph 90 % 0.00 in 0 W/m2
03:53 50.4 °F 47.8 °F 30.09 in WNW 3.0 mph 6.0 mph 91 % 0.00 in 0 W/m2
03:58 50.4 °F 47.8 °F 30.09 in WNW 4.0 mph 7.0 mph 91 % 0.00 in 0 W/m2
04:03 50.5 °F 48.0 °F 30.09 in WNW 4.0 mph 7.0 mph 91 % 0.00 in 0 W/m2
04:08 50.5 °F 48.0 °F 30.09 in WNW 4.0 mph 8.0 mph 91 % 0.00 in 0 W/m2
04:14 50.7 °F 48.2 °F 30.09 in WNW 6.0 mph 11.0 mph 91 % 0.00 in 0 W/m2
04:19 50.9 °F 48.4 °F 30.09 in WNW 7.0 mph 11.0 mph 91 % 0.00 in 0 W/m2
04:21 51.1 °F 48.5 °F 30.09 in WNW 7.0 mph 11.0 mph 91 % 0.00 in 0 W/m2
04:23 51.1 °F 48.2 °F 30.09 in WNW 7.0 mph 11.0 mph 90 % 0.00 in 0 W/m2
04:29 51.1 °F 48.2 °F 30.09 in WNW 7.0 mph 11.0 mph 90 % 0.00 in 0 W/m2
04:34 51.1 °F 48.0 °F 30.10 in WNW 6.0 mph 10.0 mph 89 % 0.00 in 0 W/m2
04:39 51.1 °F 48.0 °F 30.10 in WNW 7.0 mph 10.0 mph 89 % 0.00 in 0 W/m2
04:44 51.1 °F 48.0 °F 30.10 in WNW 7.0 mph 11.0 mph 89 % 0.00 in 0 W/m2
04:49 51.1 °F 48.0 °F 30.10 in WNW 6.0 mph 11.0 mph 89 % 0.00 in 0 W/m2
04:54 50.9 °F 47.8 °F 30.10 in WNW 6.0 mph 11.0 mph 89 % 0.00 in 0 W/m2
04:59 50.9 °F 47.8 °F 30.10 in WNW 6.0 mph 11.0 mph 89 % 0.00 in 0 W/m2
05:04 50.7 °F 47.6 °F 30.10 in WNW 7.0 mph 12.0 mph 89 % 0.00 in 0 W/m2
05:09 50.7 °F 47.6 °F 30.10 in WNW 7.0 mph 13.0 mph 89 % 0.00 in 0 W/m2
05:14 50.7 °F 47.6 °F 30.10 in WNW 7.0 mph 13.0 mph 89 % 0.00 in 0 W/m2
05:19 50.7 °F 47.6 °F 30.10 in WNW 7.0 mph 10.0 mph 89 % 0.00 in 0 W/m2
05:24 50.5 °F 47.4 °F 30.10 in WNW 7.0 mph 10.0 mph 89 % 0.00 in 0 W/m2
05:29 50.4 °F 47.2 °F 30.10 in WNW 6.0 mph 11.0 mph 89 % 0.00 in 0 W/m2
05:35 50.4 °F 47.2 °F 30.10 in NW 6.0 mph 11.0 mph 89 % 0.00 in 0 W/m2
05:40 50.4 °F 47.5 °F 30.10 in NW 6.0 mph 11.0 mph 90 % 0.00 in 5 W/m2
05:45 50.2 °F 47.4 °F 30.10 in NW 6.0 mph 10.0 mph 90 % 0.00 in 7 W/m2
05:50 50.2 °F 47.4 °F 30.10 in WNW 7.0 mph 10.0 mph 90 % 0.00 in 9 W/m2
05:55 50.2 °F 47.4 °F 30.11 in WNW 7.0 mph 10.0 mph 90 % 0.00 in 11 W/m2
06:00 50.2 °F 47.4 °F 30.11 in WNW 6.0 mph 10.0 mph 90 % 0.00 in 12 W/m2
06:05 50.2 °F 47.4 °F 30.10 in WNW 6.0 mph 9.0 mph 90 % 0.00 in 14 W/m2
06:10 50.2 °F 47.4 °F 30.10 in West 5.0 mph 9.0 mph 90 % 0.00 in 16 W/m2
06:15 50.0 °F 46.9 °F 30.11 in West 4.0 mph 8.0 mph 89 % 0.00 in 18 W/m2
06:20 50.0 °F 47.2 °F 30.11 in WNW 3.0 mph 7.0 mph 90 % 0.00 in 19 W/m2
06:25 49.8 °F 47.0 °F 30.11 in West 3.0 mph 8.0 mph 90 % 0.00 in 21 W/m2
06:30 49.8 °F 47.0 °F 30.11 in West 4.0 mph 8.0 mph 90 % 0.00 in 25 W/m2
06:35 49.8 °F 47.0 °F 30.11 in West 4.0 mph 7.0 mph 90 % 0.00 in 91 W/m2
06:40 50.2 °F 47.4 °F 30.11 in West 5.0 mph 8.0 mph 90 % 0.00 in 105 W/m2
06:45 50.5 °F 47.7 °F 30.11 in WNW 4.0 mph 8.0 mph 90 % 0.00 in 114 W/m2
06:50 51.1 °F 48.2 °F 30.11 in WNW 4.0 mph 8.0 mph 90 % 0.00 in 69 W/m2
06:55 51.4 °F 48.3 °F 30.11 in NW 2.0 mph 8.0 mph 89 % 0.00 in 42 W/m2
07:00 51.6 °F 48.2 °F 30.11 in WNW 1.0 mph 6.0 mph 88 % 0.00 in 49 W/m2
07:05 52.0 °F 48.5 °F 30.11 in NW 1.0 mph 6.0 mph 88 % 0.00 in 60 W/m2
07:10 52.2 °F 48.4 °F 30.12 in WNW 3.0 mph 9.0 mph 87 % 0.00 in 77 W/m2
07:15 52.3 °F 48.6 °F 30.12 in WNW 4.0 mph 9.0 mph 87 % 0.00 in 167 W/m2
07:20 52.9 °F 49.1 °F 30.12 in WNW 5.0 mph 9.0 mph 87 % 0.00 in 193 W/m2
07:25 53.4 °F 49.3 °F 30.12 in WNW 4.0 mph 9.0 mph 86 % 0.00 in 192 W/m2
07:30 54.1 °F 49.7 °F 30.12 in WNW 4.0 mph 9.0 mph 85 % 0.00 in 200 W/m2
07:35 54.9 °F 49.8 °F 30.12 in NW 5.0 mph 9.0 mph 83 % 0.00 in 216 W/m2
07:36 55.0 °F 50.0 °F 30.12 in WNW 5.0 mph 8.0 mph 83 % 0.00 in 213 W/m2
07:41 55.4 °F 50.0 °F 30.12 in WNW 5.0 mph 9.0 mph 82 % 0.00 in 236 W/m2
07:46 55.6 °F 49.8 °F 30.12 in WNW 6.0 mph 12.0 mph 81 % 0.00 in 258 W/m2
07:51 55.9 °F 50.2 °F 30.12 in WNW 6.0 mph 12.0 mph 81 % 0.00 in 272 W/m2
07:56 56.5 °F 50.4 °F 30.12 in West 6.0 mph 10.0 mph 80 % 0.00 in 288 W/m2
08:01 56.8 °F 50.1 °F 30.12 in WNW 7.0 mph 14.0 mph 78 % 0.00 in 304 W/m2
08:07 57.4 °F 50.2 °F 30.12 in WNW 8.0 mph 14.0 mph 77 % 0.00 in 318 W/m2
08:12 57.6 °F 50.4 °F 30.13 in WNW 7.0 mph 13.0 mph 77 % 0.00 in 332 W/m2
08:17 57.7 °F 50.2 °F 30.13 in West 7.0 mph 12.0 mph 76 % 0.00 in 346 W/m2
08:22 58.1 °F 50.2 °F 30.13 in WNW 7.0 mph 12.0 mph 75 % 0.00 in 360 W/m2
08:27 58.6 °F 50.7 °F 30.13 in WNW 6.0 mph 10.0 mph 75 % 0.00 in 374 W/m2
08:32 59.0 °F 50.7 °F 30.13 in West 5.0 mph 10.0 mph 74 % 0.00 in 388 W/m2
08:37 59.5 °F 50.5 °F 30.13 in WNW 6.0 mph 11.0 mph 72 % 0.00 in 403 W/m2
08:42 60.1 °F 49.5 °F 30.13 in WNW 7.0 mph 15.0 mph 68 % 0.00 in 417 W/m2
08:47 60.4 °F 49.8 °F 30.13 in WNW 7.0 mph 15.0 mph 68 % 0.00 in 432 W/m2
08:52 60.6 °F 48.4 °F 30.13 in WNW 8.0 mph 18.0 mph 64 % 0.00 in 443 W/m2
08:57 60.8 °F 49.0 °F 30.14 in WNW 8.0 mph 18.0 mph 65 % 0.00 in 454 W/m2
09:02 61.2 °F 48.9 °F 30.14 in WNW 6.0 mph 15.0 mph 64 % 0.00 in 473 W/m2
09:07 61.5 °F 48.4 °F 30.14 in WNW 7.0 mph 15.0 mph 62 % 0.00 in 485 W/m2
09:12 61.5 °F 47.5 °F 30.14 in WNW 9.0 mph 16.0 mph 60 % 0.00 in 499 W/m2
09:17 61.7 °F 47.2 °F 30.14 in WNW 10.0 mph 16.0 mph 59 % 0.00 in 510 W/m2
09:22 61.7 °F 47.2 °F 30.14 in WNW 9.0 mph 16.0 mph 59 % 0.00 in 522 W/m2
09:27 62.1 °F 48.0 °F 30.14 in NW 8.0 mph 15.0 mph 60 % 0.00 in 534 W/m2
09:32 62.4 °F 47.9 °F 30.14 in NW 8.0 mph 16.0 mph 59 % 0.00 in 550 W/m2
09:37 62.6 °F 47.1 °F 30.14 in NW 9.0 mph 16.0 mph 57 % 0.00 in 541 W/m2
09:42 62.6 °F 47.1 °F 30.14 in WNW 9.0 mph 14.0 mph 57 % 0.00 in 554 W/m2
09:47 62.8 °F 47.8 °F 30.14 in WNW 9.0 mph 16.0 mph 58 % 0.00 in 561 W/m2
09:52 63.0 °F 47.5 °F 30.14 in NW 9.0 mph 16.0 mph 57 % 0.00 in 594 W/m2
09:57 63.0 °F 47.0 °F 30.14 in WNW 9.0 mph 16.0 mph 56 % 0.00 in 605 W/m2
10:02 63.3 °F 47.3 °F 30.14 in WNW 9.0 mph 16.0 mph 56 % 0.00 in 624 W/m2
10:07 63.9 °F 47.9 °F 30.14 in NW 7.0 mph 13.0 mph 56 % 0.00 in 615 W/m2
10:12 64.2 °F 46.7 °F 30.15 in NW 7.0 mph 14.0 mph 53 % 0.00 in 647 W/m2
10:17 64.4 °F 46.4 °F 30.14 in NW 8.0 mph 15.0 mph 52 % 0.00 in 650 W/m2
10:22 64.6 °F 47.1 °F 30.15 in NW 8.0 mph 15.0 mph 53 % 0.00 in 643 W/m2
10:27 64.4 °F 46.4 °F 30.15 in WNW 8.0 mph 14.0 mph 52 % 0.00 in 613 W/m2
10:32 64.4 °F 46.4 °F 30.14 in WNW 9.0 mph 14.0 mph 52 % 0.00 in 686 W/m2
10:37 64.8 °F 46.7 °F 30.15 in WNW 8.0 mph 12.0 mph 52 % 0.00 in 682 W/m2
10:42 65.1 °F 47.1 °F 30.14 in WNW 7.0 mph 12.0 mph 52 % 0.00 in 698 W/m2
10:47 65.7 °F 48.1 °F 30.14 in WNW 6.0 mph 10.0 mph 53 % 0.00 in 670 W/m2
10:52 66.0 °F 46.8 °F 30.14 in NW 6.0 mph 12.0 mph 50 % 0.00 in 744 W/m2
10:57 65.8 °F 46.7 °F 30.15 in NW 6.0 mph 12.0 mph 50 % 0.00 in 773 W/m2
11:02 66.0 °F 47.4 °F 30.15 in NW 7.0 mph 14.0 mph 51 % 0.00 in 802 W/m2
11:07 65.8 °F 46.1 °F 30.14 in WNW 8.0 mph 15.0 mph 49 % 0.00 in 802 W/m2
11:12 66.0 °F 46.8 °F 30.14 in NW 7.0 mph 15.0 mph 50 % 0.00 in 795 W/m2
11:17 65.8 °F 47.2 °F 30.14 in NW 5.0 mph 10.0 mph 51 % 0.00 in 803 W/m2
11:22 66.0 °F 46.3 °F 30.14 in NNW 6.0 mph 11.0 mph 49 % 0.00 in 828 W/m2
11:27 65.8 °F 46.7 °F 30.14 in NNW 5.0 mph 11.0 mph 50 % 0.00 in 826 W/m2
11:32 66.2 °F 45.9 °F 30.14 in NW 5.0 mph 11.0 mph 48 % 0.00 in 870 W/m2
11:37 66.6 °F 46.3 °F 30.14 in WNW 6.0 mph 11.0 mph 48 % 0.00 in 861 W/m2
11:42 66.9 °F 46.6 °F 30.14 in WNW 6.0 mph 12.0 mph 48 % 0.00 in 923 W/m2
11:47 67.3 °F 47.5 °F 30.14 in West 7.0 mph 13.0 mph 49 % 0.00 in 896 W/m2
11:52 67.3 °F 46.4 °F 30.14 in West 8.0 mph 13.0 mph 47 % 0.00 in 912 W/m2
11:57 67.3 °F 45.2 °F 30.14 in WNW 7.0 mph 13.0 mph 45 % 0.00 in 853 W/m2
12:02 67.6 °F 45.5 °F 30.14 in NW 6.0 mph 13.0 mph 45 % 0.00 in 889 W/m2
12:07 68.0 °F 45.3 °F 30.14 in WNW 5.0 mph 12.0 mph 44 % 0.00 in 946 W/m2
12:12 68.4 °F 45.0 °F 30.14 in WNW 4.0 mph 9.0 mph 43 % 0.00 in 253 W/m2
12:18 68.2 °F 46.0 °F 30.14 in WNW 5.0 mph 10.0 mph 45 % 0.00 in 958 W/m2
12:23 68.2 °F 46.0 °F 30.14 in WNW 6.0 mph 13.0 mph 45 % 0.00 in 904 W/m2
12:28 68.2 °F 44.8 °F 30.14 in NW 6.0 mph 13.0 mph 43 % 0.00 in 239 W/m2
12:33 68.2 °F 44.8 °F 30.14 in NW 6.0 mph 10.0 mph 43 % 0.00 in 981 W/m2
12:38 68.7 °F 45.9 °F 30.14 in WNW 5.0 mph 9.0 mph 44 % 0.00 in 976 W/m2
12:43 68.9 °F 44.9 °F 30.13 in WNW 4.0 mph 9.0 mph 42 % 0.00 in 928 W/m2
12:48 68.5 °F 45.1 °F 30.14 in WNW 5.0 mph 9.0 mph 43 % 0.00 in 928 W/m2
12:53 68.4 °F 45.0 °F 30.13 in WNW 5.0 mph 9.0 mph 43 % 0.00 in 867 W/m2
12:58 68.2 °F 46.0 °F 30.13 in WNW 5.0 mph 10.0 mph 45 % 0.00 in 893 W/m2
13:03 68.4 °F 46.2 °F 30.13 in NW 4.0 mph 10.0 mph 45 % 0.00 in 893 W/m2
13:08 68.0 °F 45.9 °F 30.13 in WNW 4.0 mph 9.0 mph 45 % 0.00 in 221 W/m2
13:13 67.8 °F 45.7 °F 30.13 in WNW 6.0 mph 11.0 mph 45 % 0.00 in 276 W/m2
13:18 67.8 °F 45.1 °F 30.13 in WNW 6.0 mph 11.0 mph 44 % 0.00 in 867 W/m2
13:23 68.2 °F 45.4 °F 30.13 in West 5.0 mph 11.0 mph 44 % 0.00 in 807 W/m2
13:28 68.5 °F 45.1 °F 30.13 in WNW 3.0 mph 9.0 mph 43 % 0.00 in 872 W/m2
13:33 68.7 °F 45.9 °F 30.13 in WNW 2.0 mph 7.0 mph 44 % 0.00 in 904 W/m2
13:38 69.1 °F 46.8 °F 30.13 in West 4.0 mph 9.0 mph 45 % 0.00 in 874 W/m2
13:43 69.4 °F 46.0 °F 30.13 in West 7.0 mph 12.0 mph 43 % 0.00 in 886 W/m2
13:48 69.6 °F 46.1 °F 30.13 in WNW 6.0 mph 12.0 mph 43 % 0.00 in 826 W/m2
13:53 69.8 °F 46.3 °F 30.13 in WSW 5.0 mph 9.0 mph 43 % 0.00 in 853 W/m2
13:58 69.4 °F 45.3 °F 30.13 in WSW 4.0 mph 9.0 mph 42 % 0.00 in 274 W/m2
14:03 69.1 °F 45.6 °F 30.13 in WNW 4.0 mph 8.0 mph 43 % 0.00 in 933 W/m2
14:08 69.4 °F 44.7 °F 30.13 in WNW 6.0 mph 10.0 mph 41 % 0.00 in 870 W/m2
14:13 69.3 °F 44.5 °F 30.13 in WNW 5.0 mph 10.0 mph 41 % 0.00 in 214 W/m2
14:18 69.1 °F 45.0 °F 30.13 in NW 3.0 mph 8.0 mph 42 % 0.00 in 230 W/m2
14:23 68.5 °F 45.1 °F 30.13 in NW 2.0 mph 6.0 mph 43 % 0.00 in 302 W/m2
14:28 68.5 °F 45.8 °F 30.13 in WNW 2.0 mph 8.0 mph 44 % 0.00 in 251 W/m2
14:33 68.2 °F 45.4 °F 30.13 in NNW 4.0 mph 9.0 mph 44 % 0.00 in 241 W/m2
14:39 67.6 °F 45.5 °F 30.13 in NNW 3.0 mph 9.0 mph 45 % 0.00 in 260 W/m2
14:44 67.8 °F 44.5 °F 30.13 in West 3.0 mph 8.0 mph 43 % 0.00 in 253 W/m2
14:49 68.2 °F 46.0 °F 30.13 in West 3.0 mph 7.0 mph 45 % 0.00 in 744 W/m2
14:50 68.4 °F 45.6 °F 30.13 in West 3.0 mph 9.0 mph 44 % 0.00 in 786 W/m2
14:55 68.7 °F 44.7 °F 30.13 in West 5.0 mph 10.0 mph 42 % 0.00 in 837 W/m2
15:00 68.9 °F 45.5 °F 30.13 in West 7.0 mph 12.0 mph 43 % 0.00 in 877 W/m2
15:05 69.6 °F 46.1 °F 30.13 in West 7.0 mph 12.0 mph 43 % 0.00 in 877 W/m2
15:10 69.6 °F 45.5 °F 30.13 in West 7.0 mph 10.0 mph 42 % 0.00 in 306 W/m2
15:15 69.4 °F 46.0 °F 30.13 in West 6.0 mph 10.0 mph 43 % 0.00 in 756 W/m2
15:20 69.4 °F 45.3 °F 30.13 in West 6.0 mph 9.0 mph 42 % 0.00 in 807 W/m2
15:25 69.4 °F 45.3 °F 30.13 in West 6.0 mph 9.0 mph 42 % 0.00 in 373 W/m2
15:30 68.7 °F 45.3 °F 30.13 in WSW 5.0 mph 8.0 mph 43 % 0.00 in 265 W/m2
15:35 68.7 °F 45.9 °F 30.13 in WSW 5.0 mph 12.0 mph 44 % 0.00 in 740 W/m2
15:40 68.7 °F 44.7 °F 30.12 in WSW 5.0 mph 12.0 mph 42 % 0.00 in 250 W/m2
15:45 68.2 °F 45.4 °F 30.12 in SW 5.0 mph 9.0 mph 44 % 0.00 in 788 W/m2
15:46 68.2 °F 45.4 °F 30.12 in SW 5.0 mph 9.0 mph 44 % 0.00 in 788 W/m2
15:51 68.4 °F 45.0 °F 30.12 in WSW 5.0 mph 8.0 mph 43 % 0.00 in 211 W/m2
15:56 68.4 °F 45.0 °F 30.12 in West 5.0 mph 8.0 mph 43 % 0.00 in 185 W/m2
16:01 68.2 °F 44.8 °F 30.12 in West 3.0 mph 8.0 mph 43 % 0.00 in 197 W/m2
16:06 68.0 °F 45.3 °F 30.12 in WNW 2.0 mph 6.0 mph 44 % 0.00 in 221 W/m2
16:11 67.6 °F 44.9 °F 30.12 in WSW 3.0 mph 7.0 mph 44 % 0.00 in 434 W/m2
16:16 67.6 °F 44.9 °F 30.12 in WSW 3.0 mph 7.0 mph 44 % 0.00 in 364 W/m2
16:21 67.8 °F 45.7 °F 30.12 in NW 2.0 mph 6.0 mph 45 % 0.00 in 279 W/m2
16:26 67.8 °F 45.1 °F 30.12 in NNW 1.0 mph 5.0 mph 44 % 0.00 in 225 W/m2
16:31 68.2 °F 45.4 °F 30.12 in NW 1.0 mph 5.0 mph 44 % 0.00 in 701 W/m2
16:36 68.2 °F 45.4 °F 30.12 in WSW 2.0 mph 7.0 mph 44 % 0.00 in 670 W/m2
16:41 68.4 °F 46.2 °F 30.12 in SW 2.0 mph 7.0 mph 45 % 0.00 in 566 W/m2
16:46 68.4 °F 45.0 °F 30.12 in WSW 2.0 mph 6.0 mph 43 % 0.00 in 195 W/m2
16:51 68.4 °F 46.2 °F 30.12 in SW 3.0 mph 7.0 mph 45 % 0.00 in 206 W/m2
16:56 67.8 °F 45.7 °F 30.12 in SW 4.0 mph 8.0 mph 45 % 0.00 in 206 W/m2
17:01 67.5 °F 45.4 °F 30.11 in SW 3.0 mph 8.0 mph 45 % 0.00 in 227 W/m2
17:06 67.3 °F 45.8 °F 30.12 in SSW 3.0 mph 5.0 mph 46 % 0.00 in 204 W/m2
17:12 66.9 °F 46.0 °F 30.12 in SSW 3.0 mph 7.0 mph 47 % 0.00 in 190 W/m2
17:17 66.7 °F 45.9 °F 30.12 in SSW 3.0 mph 7.0 mph 47 % 0.00 in 213 W/m2
17:22 66.9 °F 46.0 °F 30.12 in South 2.0 mph 6.0 mph 47 % 0.00 in 513 W/m2
17:27 67.5 °F 45.9 °F 30.12 in South 3.0 mph 7.0 mph 46 % 0.00 in 455 W/m2
17:28 67.6 °F 46.1 °F 30.12 in South 3.0 mph 7.0 mph 46 % 0.00 in 480 W/m2
17:33 67.8 °F 45.7 °F 30.12 in South 3.0 mph 7.0 mph 45 % 0.00 in 457 W/m2
17:38 67.6 °F 46.1 °F 30.12 in SSW 3.0 mph 7.0 mph 46 % 0.00 in 209 W/m2
17:43 67.6 °F 46.1 °F 30.12 in SSW 3.0 mph 7.0 mph 46 % 0.00 in 229 W/m2
17:48 67.6 °F 45.5 °F 30.12 in SW 1.0 mph 6.0 mph 45 % 0.00 in 371 W/m2
17:53 67.8 °F 46.3 °F 30.12 in Calm   2.0 mph 46 % 0.00 in 120 W/m2
17:58 68.0 °F 46.4 °F 30.11 in Calm   1.0 mph 46 % 0.00 in 84 W/m2
18:03 68.0 °F 46.4 °F 30.11 in Calm   1.0 mph 46 % 0.00 in 113 W/m2
18:08 67.8 °F 46.3 °F 30.11 in Calm   3.0 mph 46 % 0.00 in 91 W/m2
18:13 67.5 °F 47.1 °F 30.12 in SSW 1.0 mph 3.0 mph 48 % 0.00 in 100 W/m2
18:18 67.5 °F 47.1 °F 30.11 in Calm   2.0 mph 48 % 0.00 in 109 W/m2
18:20 67.5 °F 46.5 °F 30.11 in Calm   2.0 mph 47 % 0.00 in 107 W/m2
18:25 67.3 °F 46.4 °F 30.11 in Calm   1.0 mph 47 % 0.00 in 93 W/m2
18:30 66.9 °F 46.0 °F 30.11 in Calm     47 % 0.00 in 97 W/m2
18:35 66.7 °F 46.4 °F 30.11 in Calm   1.0 mph 48 % 0.00 in 98 W/m2
18:40 66.6 °F 46.8 °F 30.11 in Calm   1.0 mph 49 % 0.00 in 95 W/m2
18:45 66.4 °F 46.1 °F 30.11 in Calm   1.0 mph 48 % 0.00 in 88 W/m2
18:50 66.4 °F 46.6 °F 30.11 in Calm   1.0 mph 49 % 0.00 in 90 W/m2
18:55 66.2 °F 46.5 °F 30.11 in Calm   1.0 mph 49 % 0.00 in 86 W/m2
19:00 66.2 °F 47.0 °F 30.11 in Calm   1.0 mph 50 % 0.00 in 90 W/m2
19:05 66.2 °F 48.0 °F 30.11 in Calm   1.0 mph 52 % 0.00 in 79 W/m2
19:10 66.2 °F 47.0 °F 30.11 in Calm   1.0 mph 50 % 0.00 in 69 W/m2
19:15 66.0 °F 46.8 °F 30.11 in Calm   1.0 mph 50 % 0.00 in 63 W/m2
19:20 66.0 °F 47.4 °F 30.11 in Calm     51 % 0.00 in 63 W/m2
19:25 65.7 °F 47.5 °F 30.11 in Calm     52 % 0.00 in 56 W/m2
19:30 65.7 °F 48.1 °F 30.11 in Calm   1.0 mph 53 % 0.00 in 47 W/m2
19:35 65.5 °F 49.4 °F 30.11 in Calm   1.0 mph 56 % 0.00 in 44 W/m2
19:40 65.3 °F 49.2 °F 30.11 in Calm     56 % 0.00 in 40 W/m2
19:45 65.1 °F 50.9 °F 30.11 in Calm     60 % 0.00 in 35 W/m2
19:50 64.8 °F 51.4 °F 30.11 in Calm     62 % 0.00 in 32 W/m2
19:55 64.6 °F 51.7 °F 30.11 in Calm     63 % 0.00 in 26 W/m2
20:00 64.2 °F 50.5 °F 30.11 in Calm     61 % 0.00 in 21 W/m2
20:05 64.0 °F 51.2 °F 30.11 in Calm     63 % 0.00 in 18 W/m2
20:10 63.7 °F 50.8 °F 30.11 in Calm     63 % 0.00 in 14 W/m2
20:15 63.5 °F 50.7 °F 30.11 in Calm     63 % 0.00 in 11 W/m2
20:20 63.5 °F 51.1 °F 30.11 in Calm     64 % 0.00 in 7 W/m2
20:25 63.3 °F 52.6 °F 30.11 in Calm     68 % 0.00 in 5 W/m2
20:30 63.3 °F 53.0 °F 30.11 in Calm     69 % 0.00 in 0 W/m2
20:35 63.1 °F 52.8 °F 30.11 in Calm     69 % 0.00 in 0 W/m2
20:41 63.0 °F 52.6 °F 30.11 in Calm     69 % 0.00 in 0 W/m2
20:46 62.8 °F 51.7 °F 30.11 in Calm     67 % 0.00 in 0 W/m2
20:51 62.6 °F 51.5 °F 30.11 in Calm     67 % 0.00 in 0 W/m2
20:56 62.4 °F 50.9 °F 30.11 in Calm     66 % 0.00 in 0 W/m2
21:01 62.2 °F 51.1 °F 30.11 in Calm     67 % 0.00 in 0 W/m2
21:06 62.1 °F 51.8 °F 30.11 in Calm     69 % 0.00 in 0 W/m2
21:11 61.9 °F 52.4 °F 30.11 in Calm     71 % 0.00 in 0 W/m2
21:16 61.7 °F 52.2 °F 30.11 in Calm     71 % 0.00 in 0 W/m2
21:21 61.3 °F 52.2 °F 30.11 in Calm     72 % 0.00 in 0 W/m2
21:26 61.2 °F 52.4 °F 30.11 in Calm     73 % 0.00 in 0 W/m2
21:31 61.2 °F 52.8 °F 30.11 in Calm     74 % 0.00 in 0 W/m2
21:36 61.0 °F 53.0 °F 30.11 in Calm     75 % 0.00 in 0 W/m2
21:41 60.8 °F 52.8 °F 30.11 in Calm     75 % 0.00 in 0 W/m2
21:46 60.6 °F 53.0 °F 30.11 in Calm     76 % 0.00 in 0 W/m2
21:51 60.4 °F 52.8 °F 30.11 in Calm     76 % 0.00 in 0 W/m2
21:56 60.4 °F 53.2 °F 30.11 in Calm     77 % 0.00 in 0 W/m2
22:01 60.3 °F 52.7 °F 30.11 in Calm     76 % 0.00 in 0 W/m2
22:06 60.1 °F 52.8 °F 30.11 in Calm     77 % 0.00 in 0 W/m2
22:11 60.1 °F 53.2 °F 30.11 in Calm     78 % 0.00 in 0 W/m2
22:16 59.9 °F 53.0 °F 30.11 in Calm     78 % 0.00 in 0 W/m2
22:21 59.7 °F 52.8 °F 30.11 in Calm     78 % 0.00 in 0 W/m2
22:26 59.5 °F 52.0 °F 30.11 in Calm     76 % 0.00 in 0 W/m2
22:31 59.4 °F 51.4 °F 30.11 in Calm     75 % 0.00 in 0 W/m2
22:36 59.2 °F 50.9 °F 30.11 in Calm     74 % 0.00 in 0 W/m2
22:41 59.2 °F 51.3 °F 30.10 in Calm     75 % 0.00 in 0 W/m2
22:46 59.2 °F 52.0 °F 30.10 in Calm     77 % 0.00 in 0 W/m2
22:51 59.4 °F 52.5 °F 30.10 in Calm     78 % 0.00 in 0 W/m2
22:56 59.4 °F 52.8 °F 30.10 in Calm     79 % 0.00 in 0 W/m2
23:01 59.4 °F 53.5 °F 30.10 in Calm   2.0 mph 81 % 0.00 in 0 W/m2
23:06 59.2 °F 53.4 °F 30.10 in Calm   2.0 mph 81 % 0.00 in 0 W/m2
23:11 59.2 °F 53.4 °F 30.10 in Calm     81 % 0.00 in 0 W/m2
23:16 59.0 °F 53.2 °F 30.10 in Calm     81 % 0.00 in 0 W/m2
23:21 58.8 °F 53.0 °F 30.10 in Calm     81 % 0.00 in 0 W/m2
23:26 58.6 °F 51.4 °F 30.10 in Calm     77 % 0.00 in 0 W/m2
23:31 58.6 °F 51.1 °F 30.10 in Calm     76 % 0.00 in 0 W/m2
23:36 58.6 °F 51.4 °F 30.10 in Calm     77 % 0.00 in 0 W/m2
23:41 58.6 °F 51.1 °F 30.10 in Calm     76 % 0.00 in 0 W/m2
23:46 58.6 °F 51.1 °F 30.10 in Calm     76 % 0.00 in 0 W/m2
23:51 58.6 °F 50.7 °F 30.10 in Calm     75 % 0.00 in 0 W/m2
23:54 58.6 °F 50.4 °F 30.09 in Calm   1.0 mph 74 % 0.00 in 0 W/m2
23:59 58.8 °F 50.5 °F 30.09 in Calm   1.0 mph 74 % 0.00 in 0 W/m2
Delerius-Weather
Compliments of Weather Underground - 2.25 mb

Data updates at regular intervals.